フェアバンクス の空港の天気 - METARとTAF

フェアバンクス国際空港 ( PAFA / FAI ) - アメリカ アラスカ州フェアバンクス
飛行場実況気象(Metar)
観測時間10/21 10:53 AKDT (10/21 18:53 UTC)
風向・風速北北東 2m/s
視程4000m
天気現象弱い氷霧雨 雪 もや
全天の8割程度の雲 雲底高度 240m
全天の8割程度の雲 雲底高度 400m
全天を覆う雲 雲底高度 1370m
気温-4.4℃
湿度88%
気圧1041.8hPa
METARPAFA 211853Z 03003KT 2 1/2SM -FZDZSN BR BKN008 BKN013 OVC045 M04/M06 A3073 RMK AO2 SLP418 P0000 I1000 T10441061
過去の天気等 Google飛行場航空写真 Wunderground天気予報

過去48時間のMETAR

飛行場予報(TAF)
発表時間: 10/21 10:59 AKDT (10/21 18:59 UTC)
予報対象時間: 21日11時 AKDT ~ 22日16時 AKDT
風向・風速静穏
視程3220m
天気現象弱い氷霧雨雪 もや
全天の8割程度の雲 雲底高度 240m
全天の8割程度の雲 雲底高度 300m
全天を覆う雲 雲底高度 760m
21日11時 AKDT ~ 21日14時 AKDT に一時的に
視程8050m
天気現象弱い氷霧雨雪 もや
全天の4割程度の雲 雲底高度 150m
全天の8割程度の雲 雲底高度 300m
全天を覆う雲 雲底高度 760m
21日14時 AKDT から
風向・風速静穏
視程10km以上
天気現象もや
全天を覆う雲 雲底高度 460m
21日16時 AKDT から
風向・風速北北東 2m/s
視程10km以上
全天の8割程度の雲 雲底高度 460m
22日0時 AKDT から
風向・風速北東 2m/s
視程10km以上
全天の4割程度の雲 雲底高度 460m
PAFA 211859Z 2119/2224 00000KT 2SM -FZDZSN BR BKN008 BKN010 OVC025
TEMPO 2119/2122 5SM -FZDZSN BR SCT005 BKN010 OVC025
FM212200 00000KT 6SM BR OVC015
FM220000 03003KT P6SM BKN015
FM220800 05003KT P6SM SCT015